Time;durP1;ratioP1;P1;durP2;ratioP2;P2;SDS_P1;SDS_P2;PMS_P1;PMS_P2;Temp;Humidity;BMP_temperature;BMP_pressure;BME280_temperature;BME280_humidity;BME280_pressure;Samples;Min_cycle;Max_cycle;Signal;HPM_P1;HPM_P2
2021/05/10 00:01:01;;;;;;;2.53;2.13;;;22.30;58.80;;;;;;5014095;28;20220;-85
2021/05/10 00:03:27;;;;;;;3.03;2.00;;;22.40;59.10;;;;;;5014283;28;20161;-85
2021/05/10 00:05:53;;;;;;;2.47;2.10;;;22.40;59.20;;;;;;5014436;28;20793;-87
2021/05/10 00:08:21;;;;;;;2.20;2.10;;;22.30;59.00;;;;;;5014263;28;20974;-86
2021/05/10 00:10:47;;;;;;;2.43;2.10;;;22.40;58.90;;;;;;5014683;28;20176;-84
2021/05/10 00:13:15;;;;;;;2.10;2.00;;;22.30;58.70;;;;;;5014019;28;20415;-86
2021/05/10 00:15:41;;;;;;;2.93;2.13;;;22.30;59.00;;;;;;5014173;28;20192;-85
2021/05/10 00:18:06;;;;;;;2.27;2.17;;;22.30;59.10;;;;;;4997832;28;20427;-85
2021/05/10 00:20:34;;;;;;;2.10;2.00;;;22.30;59.20;;;;;;4996363;28;20216;-85
2021/05/10 00:23:01;;;;;;;2.87;2.50;;;22.20;59.00;;;;;;5013813;28;20184;-85
2021/05/10 00:25:27;;;;;;;1.90;1.80;;;22.30;59.20;;;;;;5013720;28;20426;-85
2021/05/10 00:27:53;;;;;;;3.40;2.40;;;22.30;59.00;;;;;;5013637;28;20415;-84
2021/05/10 00:30:20;;;;;;;2.10;2.00;;;22.20;59.90;;;;;;5013655;28;20829;-85
2021/05/10 00:32:46;;;;;;;2.30;2.20;;;22.40;59.70;;;;;;5013612;28;20411;-85
2021/05/10 00:35:16;;;;;;;2.27;2.23;;;22.10;59.70;;;;;;5013544;28;20879;-86
2021/05/10 00:37:42;;;;;;;2.30;2.10;;;22.10;60.40;;;;;;5013475;28;20534;-84
2021/05/10 00:40:11;;;;;;;1.97;1.87;;;21.90;60.80;;;;;;5013327;28;20447;-84
2021/05/10 00:42:37;;;;;;;2.47;2.20;;;22.10;60.50;;;;;;4995850;28;20431;-84
2021/05/10 00:45:03;;;;;;;3.70;2.47;;;21.80;59.90;;;;;;5013380;28;20945;-85
2021/05/10 00:47:29;;;;;;;2.17;2.13;;;22.00;59.50;;;;;;5013203;28;20424;-85
2021/05/10 00:49:54;;;;;;;2.40;2.30;;;22.00;60.00;;;;;;5013164;28;20463;-84
2021/05/10 00:52:20;;;;;;;2.40;2.20;;;21.60;61.60;;;;;;5013328;28;20175;-84
2021/05/10 00:54:46;;;;;;;2.97;2.80;;;21.40;64.40;;;;;;5013206;28;20180;-85
2021/05/10 00:57:12;;;;;;;3.00;2.73;;;21.20;62.40;;;;;;5013205;28;20190;-85
2021/05/10 00:59:38;;;;;;;2.80;2.70;;;20.90;54.70;;;;;;5013367;28;20555;-86
2021/05/10 01:02:05;;;;;;;2.50;2.40;;;20.70;56.90;;;;;;5013170;28;20462;-86
2021/05/10 01:04:30;;;;;;;3.10;2.90;;;20.20;58.10;;;;;;5013152;28;20943;-86
2021/05/10 01:06:56;;;;;;;2.70;2.50;;;19.90;56.90;;;;;;5013068;28;20502;-87
2021/05/10 01:09:21;;;;;;;2.30;2.30;;;19.50;57.90;;;;;;5012981;28;20177;-87
2021/05/10 01:11:47;;;;;;;2.00;1.80;;;19.70;57.00;;;;;;5012977;28;20593;-86
2021/05/10 01:14:13;;;;;;;2.83;2.80;;;19.30;57.20;;;;;;5013057;28;20180;-86
2021/05/10 01:16:38;;;;;;;5.00;2.23;;;19.20;59.40;;;;;;4995417;28;20206;-86
2021/05/10 01:19:04;;;;;;;2.20;2.20;;;19.50;52.30;;;;;;5012959;28;20207;-86
2021/05/10 01:21:31;;;;;;;3.33;2.27;;;19.30;52.70;;;;;;5012945;28;20215;-86
2021/05/10 01:23:58;;;;;;;2.73;2.53;;;19.40;50.50;;;;;;5012870;28;20411;-86
2021/05/10 01:26:23;;;;;;;2.47;2.23;;;19.50;51.10;;;;;;5012880;28;20427;-85
2021/05/10 01:28:49;;;;;;;2.30;2.20;;;19.70;49.90;;;;;;5012847;28;20420;-85
2021/05/10 01:31:16;;;;;;;2.13;2.13;;;19.50;49.40;;;;;;5012880;28;20252;-85
2021/05/10 01:33:42;;;;;;;2.17;2.07;;;19.60;48.90;;;;;;5012854;28;20767;-85
2021/05/10 01:36:08;;;;;;;2.20;2.20;;;19.80;48.80;;;;;;5012788;28;20470;-84
2021/05/10 01:38:33;;;;;;;4.53;2.87;;;20.00;47.90;;;;;;5012801;28;20809;-84
2021/05/10 01:40:59;;;;;;;2.50;2.50;;;20.20;48.70;;;;;;4995062;28;20208;-84
2021/05/10 01:43:25;;;;;;;2.70;2.60;;;21.60;49.90;;;;;;5013225;28;20640;-84
2021/05/10 01:45:50;;;;;;;2.60;2.47;;;19.50;47.00;;;;;;4995115;28;20181;-85
2021/05/10 01:48:16;;;;;;;2.23;2.23;;;20.20;46.60;;;;;;5012774;28;20169;-86
2021/05/10 01:50:45;;;;;;;2.30;2.20;;;20.30;45.90;;;;;;4994907;28;20224;-85
2021/05/10 01:53:12;;;;;;;2.17;2.17;;;20.30;45.80;;;;;;4994927;28;20408;-85
2021/05/10 01:55:38;;;;;;;2.17;2.00;;;20.60;44.60;;;;;;5012747;28;20470;-85
2021/05/10 01:58:05;;;;;;;2.00;2.00;;;20.50;44.60;;;;;;4999963;28;20481;-85
2021/05/10 02:00:33;;;;;;;2.00;1.90;;;20.50;44.40;;;;;;4999476;28;20561;-85
2021/05/10 02:03:00;;;;;;;5.00;2.07;;;20.60;43.70;;;;;;5014304;28;20412;-85
2021/05/10 02:05:28;;;;;;;1.60;1.60;;;21.10;43.40;;;;;;5012806;28;20411;-85
2021/05/10 02:07:56;;;;;;;2.30;2.20;;;20.90;42.70;;;;;;4995064;28;20419;-85
2021/05/10 02:10:46;;;;;;;1.83;1.83;;;21.10;42.90;;;;;;5012486;28;20416;-86
2021/05/10 02:13:25;;;;;;;2.20;2.10;;;21.10;42.50;;;;;;4994768;28;20507;-85
2021/05/10 02:15:51;;;;;;;2.17;2.07;;;21.00;42.40;;;;;;5012535;28;20896;-85
2021/05/10 02:18:20;;;;;;;2.07;2.07;;;21.30;43.00;;;;;;5012455;28;20420;-85
2021/05/10 02:20:46;;;;;;;2.30;2.10;;;21.30;42.30;;;;;;5012367;28;20495;-85
2021/05/10 02:23:15;;;;;;;1.90;1.90;;;21.30;42.90;;;;;;5015648;28;20427;-85
2021/05/10 02:25:46;;;;;;;2.20;2.03;;;21.50;42.70;;;;;;4998332;28;20439;-85
2021/05/10 02:28:13;;;;;;;1.97;1.87;;;21.20;42.20;;;;;;5015889;28;20419;-85
2021/05/10 02:30:40;;;;;;;2.60;2.50;;;22.20;43.20;;;;;;5017157;28;20423;-85
2021/05/10 02:33:08;;;;;;;2.07;1.97;;;21.10;42.90;;;;;;5017861;28;20490;-85
2021/05/10 02:35:34;;;;;;;2.37;2.27;;;22.00;43.60;;;;;;4998462;28;20412;-85
2021/05/10 02:37:59;;;;;;;2.00;2.00;;;20.60;43.70;;;;;;5015855;28;20419;-85
2021/05/10 02:40:25;;;;;;;2.77;1.87;;;20.90;43.40;;;;;;4998035;28;20295;-85
2021/05/10 02:42:52;;;;;;;2.20;2.10;;;21.00;43.40;;;;;;5016156;28;20407;-86
2021/05/10 02:45:18;;;;;;;1.90;1.80;;;20.80;43.40;;;;;;5015589;28;20180;-85
2021/05/10 02:47:45;;;;;;;1.70;1.70;;;20.70;43.30;;;;;;5015428;28;20803;-85
2021/05/10 02:50:17;;;;;;;2.13;2.13;;;20.50;43.20;;;;;;5015386;28;21006;-85
2021/05/10 02:52:43;;;;;;;2.30;2.30;;;21.20;43.20;;;;;;5015499;28;20412;-85
2021/05/10 02:55:09;;;;;;;2.03;2.03;;;21.50;43.30;;;;;;5015397;28;20430;-85
2021/05/10 02:57:35;;;;;;;1.80;1.80;;;21.20;43.00;;;;;;5015345;28;20172;-84
2021/05/10 03:00:00;;;;;;;2.60;2.40;;;20.80;42.70;;;;;;5015200;28;20603;-85
2021/05/10 03:02:26;;;;;;;2.23;2.17;;;21.70;44.60;;;;;;4997799;28;20424;-85
2021/05/10 03:04:52;;;;;;;2.40;2.30;;;20.20;42.90;;;;;;5015255;28;20528;-85
2021/05/10 03:07:17;;;;;;;2.13;1.97;;;20.70;42.90;;;;;;5015139;28;20172;-85
2021/05/10 03:09:44;;;;;;;2.13;2.03;;;21.10;43.60;;;;;;5015490;28;20184;-85
2021/05/10 03:12:09;;;;;;;2.10;2.00;;;20.80;43.00;;;;;;5015431;28;20204;-84
2021/05/10 03:14:35;;;;;;;2.07;1.97;;;21.00;43.50;;;;;;5015536;28;20559;-84
2021/05/10 03:17:01;;;;;;;2.27;2.17;;;20.70;43.60;;;;;;5015605;28;20175;-84
2021/05/10 03:19:26;;;;;;;2.43;2.23;;;20.70;43.30;;;;;;5015622;28;20640;-84
2021/05/10 03:21:52;;;;;;;2.33;2.33;;;20.30;43.30;;;;;;5015202;28;20216;-84
2021/05/10 03:24:17;;;;;;;2.60;2.40;;;20.80;43.30;;;;;;5015249;28;20165;-84
2021/05/10 03:26:43;;;;;;;2.20;2.10;;;20.60;42.90;;;;;;5015313;28;20173;-83
2021/05/10 03:29:09;;;;;;;2.43;2.23;;;20.70;42.90;;;;;;5015091;28;20231;-83
2021/05/10 03:31:36;;;;;;;2.00;2.00;;;20.90;43.30;;;;;;5015299;28;20165;-84
2021/05/10 03:34:03;;;;;;;2.93;2.83;;;20.80;42.90;;;;;;5014113;28;20592;-84
2021/05/10 03:36:29;;;;;;;3.20;2.50;;;21.00;43.40;;;;;;5014984;28;20418;-84
2021/05/10 03:38:54;;;;;;;2.57;2.50;;;20.70;43.30;;;;;;5014982;28;20404;-85
2021/05/10 03:41:22;;;;;;;2.43;2.23;;;20.60;43.30;;;;;;5014715;28;20203;-85
2021/05/10 03:43:48;;;;;;;1.93;1.93;;;20.70;43.20;;;;;;5015150;28;20243;-85
2021/05/10 03:46:13;;;;;;;4.17;3.77;;;20.60;43.40;;;;;;5015005;28;20525;-85
2021/05/10 03:48:39;;;;;;;2.63;2.57;;;20.50;43.40;;;;;;5015025;28;20412;-85
2021/05/10 03:51:04;;;;;;;2.37;2.30;;;20.60;43.50;;;;;;5014540;28;20708;-85
2021/05/10 03:53:30;;;;;;;2.70;2.60;;;20.50;43.70;;;;;;5014216;28;20168;-84
2021/05/10 03:55:55;;;;;;;2.30;2.30;;;20.50;43.80;;;;;;5014536;28;20173;-85
2021/05/10 03:58:21;;;;;;;2.40;2.30;;;20.30;43.80;;;;;;5014552;28;20173;-85
2021/05/10 04:00:47;;;;;;;2.60;2.50;;;20.50;43.80;;;;;;5014184;28;20208;-85
2021/05/10 04:03:15;;;;;;;2.30;2.20;;;20.20;43.40;;;;;;4996625;28;20165;-85
2021/05/10 04:13:56;;;;;;;2.70;2.60;;;20.60;42.30;;;;;;5014017;28;20415;-84
2021/05/10 04:16:19;;;;;;;2.20;2.20;;;20.70;42.60;;;;;;5013235;28;20836;-86
2021/05/10 04:18:45;;;;;;;2.27;2.27;;;20.70;42.50;;;;;;5013802;28;20459;-85
2021/05/10 04:21:10;;;;;;;2.80;2.13;;;20.60;42.30;;;;;;4996221;28;20213;-86
2021/05/10 04:23:36;;;;;;;2.10;2.00;;;20.70;45.20;;;;;;5013850;28;20268;-85
2021/05/10 04:26:01;;;;;;;2.30;2.20;;;20.10;46.20;;;;;;5013864;28;20177;-86
2021/05/10 04:28:27;;;;;;;2.23;2.23;;;20.00;46.60;;;;;;5013610;28;20179;-85
2021/05/10 04:30:55;;;;;;;2.30;2.20;;;20.10;47.50;;;;;;5014967;28;20183;-85
2021/05/10 04:33:32;;;;;;;2.20;2.10;;;20.20;47.00;;;;;;5013462;28;20640;-85
2021/05/10 04:35:59;;;;;;;2.40;2.37;;;20.10;46.70;;;;;;5013536;28;20495;-85
2021/05/10 04:38:25;;;;;;;2.13;2.10;;;20.00;46.80;;;;;;4995782;28;20489;-85
2021/05/10 04:40:52;;;;;;;2.07;2.07;;;20.00;46.80;;;;;;5013375;28;20471;-84
2021/05/10 04:43:17;;;;;;;2.93;2.73;;;20.20;46.90;;;;;;5013362;28;20452;-85
2021/05/10 04:45:44;;;;;;;3.50;2.83;;;21.30;47.20;;;;;;4995242;28;20419;-84
2021/05/10 04:48:10;;;;;;;3.03;2.57;;;20.40;46.30;;;;;;5013160;28;20172;-84
2021/05/10 04:50:36;;;;;;;2.47;2.30;;;20.30;46.30;;;;;;5013636;28;20475;-85
2021/05/10 04:53:01;;;;;;;2.23;2.23;;;20.60;49.40;;;;;;5013386;28;20412;-84
2021/05/10 04:55:27;;;;;;;2.53;2.43;;;20.00;48.30;;;;;;5013414;28;20199;-85
2021/05/10 04:57:53;;;;;;;2.30;2.20;;;20.10;49.10;;;;;;5013273;28;20173;-83
2021/05/10 05:00:18;;;;;;;2.47;2.30;;;19.70;50.00;;;;;;4995625;28;20232;-84
2021/05/10 05:02:47;;;;;;;3.03;2.60;;;20.10;50.30;;;;;;5013296;28;20200;-85
2021/05/10 05:05:13;;;;;;;3.13;2.93;;;19.80;50.30;;;;;;5018297;28;20200;-90
2021/05/10 05:07:39;;;;;;;2.80;2.70;;;20.20;51.20;;;;;;5004706;28;21006;-88
2021/05/10 05:10:07;;;;;;;4.73;3.07;;;19.60;50.40;;;;;;5022309;28;20442;-89
2021/05/10 05:12:33;;;;;;;2.57;2.43;;;20.10;50.70;;;;;;5004999;28;20411;-89
2021/05/10 05:14:58;;;;;;;2.50;2.40;;;19.40;50.20;;;;;;5005447;28;20443;-89
2021/05/10 05:17:24;;;;;;;1.90;1.90;;;20.00;51.10;;;;;;5004064;28;20774;-88
2021/05/10 05:19:50;;;;;;;2.70;2.60;;;21.80;53.30;;;;;;5005201;28;20173;-89
2021/05/10 05:22:16;;;;;;;2.90;2.70;;;22.90;56.10;;;;;;5007866;28;20910;-89
2021/05/10 05:24:41;;;;;;;3.47;3.23;;;22.50;53.00;;;;;;5018893;28;20177;-88
2021/05/10 05:27:07;;;;;;;2.83;2.80;;;22.80;54.10;;;;;;5035021;28;20234;-89
2021/05/10 05:29:32;;;;;;;2.80;2.70;;;20.40;49.80;;;;;;5022672;28;20161;-89
2021/05/10 05:31:59;;;;;;;2.60;2.50;;;20.30;49.80;;;;;;5003703;28;20240;-89
2021/05/10 05:34:25;;;;;;;3.53;3.37;;;23.20;53.80;;;;;;4986990;28;20200;-90
2021/05/10 05:36:51;;;;;;;2.73;2.63;;;20.60;51.10;;;;;;5019538;28;20976;-86
2021/05/10 05:39:16;;;;;;;2.77;2.67;;;20.50;51.50;;;;;;5003329;28;20432;-89
2021/05/10 05:41:43;;;;;;;3.00;2.80;;;22.60;54.20;;;;;;5003562;28;20215;-87
2021/05/10 05:44:09;;;;;;;3.93;2.80;;;23.70;55.00;;;;;;5014193;28;20168;-86
2021/05/10 05:46:42;;;;;;;2.73;2.63;;;23.20;52.20;;;;;;5012662;28;20419;-84
2021/05/10 05:49:08;;;;;;;4.80;3.00;;;20.70;49.40;;;;;;4995273;28;20223;-86
2021/05/10 05:51:34;;;;;;;3.93;2.67;;;20.40;49.90;;;;;;5012632;28;20450;-87
2021/05/10 05:54:00;;;;;;;2.77;2.67;;;20.30;49.00;;;;;;5012516;28;20944;-84
2021/05/10 05:56:27;;;;;;;2.60;2.50;;;20.00;48.90;;;;;;5013495;28;20423;-85
2021/05/10 05:58:52;;;;;;;3.07;2.97;;;20.60;49.50;;;;;;5016568;28;20167;-86
2021/05/10 06:01:19;;;;;;;3.47;2.37;;;20.10;49.30;;;;;;5016346;28;20545;-86
2021/05/10 06:03:45;;;;;;;2.70;2.50;;;23.10;50.60;;;;;;5016368;28;20970;-85
2021/05/10 06:06:11;;;;;;;2.50;2.33;;;23.50;51.10;;;;;;5016327;28;20434;-86
2021/05/10 06:08:39;;;;;;;2.00;2.00;;;19.40;49.50;;;;;;4322421;28;10000747;-86
2021/05/10 06:11:06;;;;;;;2.00;2.00;;;19.90;50.10;;;;;;5013858;28;20176;-86
2021/05/10 06:13:33;;;;;;;2.50;2.43;;;21.60;50.90;;;;;;5013766;28;20423;-87
2021/05/10 06:15:59;;;;;;;2.60;2.50;;;20.70;50.80;;;;;;5013853;28;20407;-86
2021/05/10 06:18:25;;;;;;;2.13;2.07;;;20.20;50.60;;;;;;5014059;28;20462;-86
2021/05/10 06:20:51;;;;;;;2.57;2.57;;;19.90;50.10;;;;;;5014677;28;20467;-86
2021/05/10 06:23:17;;;;;;;1.90;1.90;;;19.20;51.60;;;;;;5013573;28;20173;-85
2021/05/10 06:25:43;;;;;;;2.30;2.10;;;18.70;52.70;;;;;;5014320;28;20863;-90
2021/05/10 06:28:08;;;;;;;2.37;2.03;;;20.50;57.50;;;;;;5006896;28;20169;-90
2021/05/10 06:30:34;;;;;;;2.60;2.50;;;18.10;56.80;;;;;;5006191;28;20184;-90
2021/05/10 06:32:59;;;;;;;2.40;2.30;;;20.90;56.10;;;;;;5015682;28;20211;-87
2021/05/10 06:35:25;;;;;;;3.13;2.90;;;17.30;52.20;;;;;;5013724;28;20177;-84
2021/05/10 06:37:50;;;;;;;2.30;2.30;;;19.10;53.70;;;;;;5013598;28;20247;-89
2021/05/10 06:40:16;;;;;;;2.50;2.00;;;19.00;52.60;;;;;;4997055;28;20354;-89
2021/05/10 06:42:42;;;;;;;2.43;2.17;;;19.90;53.30;;;;;;4996396;28;20180;-88
2021/05/10 06:45:09;;;;;;;1.87;1.87;;;19.40;52.60;;;;;;5014527;28;20168;-89
2021/05/10 06:47:38;;;;;;;2.77;2.57;;;19.20;51.40;;;;;;5013699;28;20250;-89
2021/05/10 06:50:04;;;;;;;2.33;2.23;;;21.70;53.10;;;;;;5014425;28;20459;-88
2021/05/10 06:52:30;;;;;;;2.20;2.20;;;20.60;52.10;;;;;;5015271;28;20447;-89
2021/05/10 06:55:00;;;;;;;2.07;2.00;;;19.90;51.20;;;;;;5024722;28;20460;-90
2021/05/10 06:57:26;;;;;;;2.37;2.27;;;20.70;51.80;;;;;;5009409;28;20177;-89
2021/05/10 07:00:03;;;;;;;1.90;1.73;;;22.30;47.70;;;;;;5024011;28;20446;-89
2021/05/10 07:02:29;;;;;;;2.93;2.30;;;22.60;46.50;;;;;;5002499;28;20212;-91
2021/05/10 07:04:57;;;;;;;3.00;2.73;;;22.30;47.10;;;;;;5010782;28;20428;-90
2021/05/10 07:07:23;;;;;;;2.27;2.10;;;22.30;45.30;;;;;;5027114;28;20420;-91
2021/05/10 07:09:49;;;;;;;3.00;2.00;;;23.00;45.00;;;;;;5006011;28;20430;-88
2021/05/10 07:12:16;;;;;;;1.83;1.83;;;23.90;44.90;;;;;;5012451;28;20176;-91
2021/05/10 07:14:42;;;;;;;2.00;1.90;;;26.90;45.50;;;;;;5030437;28;20252;-89
2021/05/10 07:17:08;;;;;;;1.73;1.73;;;24.70;43.10;;;;;;4996689;28;20973;-90
2021/05/10 07:19:35;;;;;;;2.13;2.07;;;26.40;44.40;;;;;;4994487;28;20416;-90
2021/05/10 07:22:00;;;;;;;1.87;1.77;;;27.80;46.40;;;;;;5010097;28;20823;-90
2021/05/10 07:24:26;;;;;;;2.20;2.10;;;25.90;45.90;;;;;;5007520;28;20470;-90
2021/05/10 07:26:54;;;;;;;2.50;2.40;;;28.40;42.80;;;;;;5010325;28;20176;-92
2021/05/10 07:29:26;;;;;;;2.37;2.13;;;26.90;40.90;;;;;;5024038;28;20428;-84
2021/05/10 07:31:53;;;;;;;2.10;2.00;;;26.70;41.30;;;;;;5006640;28;20424;-91
2021/05/10 07:34:21;;;;;;;2.50;2.40;;;26.70;42.60;;;;;;5007469;28;20452;-90
2021/05/10 07:36:47;;;;;;;2.40;2.20;;;29.70;39.40;;;;;;5024012;28;20498;-88
2021/05/10 07:39:12;;;;;;;2.17;2.07;;;28.20;38.20;;;;;;5007039;28;20451;-87
2021/05/10 07:41:38;;;;;;;2.20;2.10;;;27.70;39.20;;;;;;4661341;28;9999828;-90
2021/05/10 07:44:04;;;;;;;3.60;1.70;;;26.80;37.40;;;;;;5020950;28;20176;-89
2021/05/10 07:46:30;;;;;;;1.63;1.53;;;26.80;36.20;;;;;;5001961;28;20269;-90
2021/05/10 07:48:56;;;;;;;1.67;1.63;;;28.10;35.90;;;;;;4997577;28;20894;-89
2021/05/10 07:51:21;;;;;;;2.70;2.60;;;27.10;36.80;;;;;;4997006;28;20235;-90
2021/05/10 07:53:47;;;;;;;1.80;1.60;;;28.30;36.90;;;;;;5016118;28;20264;-90
2021/05/10 07:56:13;;;;;;;2.17;2.03;;;28.50;36.80;;;;;;4999475;28;20180;-89
2021/05/10 07:58:42;;;;;;;2.40;2.30;;;27.00;36.90;;;;;;5023787;28;20224;-92
2021/05/10 08:01:10;;;;;;;3.23;2.00;;;26.00;39.80;;;;;;5009848;28;20239;-92
2021/05/10 08:03:35;;;;;;;1.90;1.80;;;25.40;42.70;;;;;;5016774;28;20447;-79
2021/05/10 08:06:02;;;;;;;1.80;1.70;;;26.00;39.80;;;;;;5001079;28;20470;-79
2021/05/10 08:08:28;;;;;;;1.63;1.60;;;23.70;39.90;;;;;;4992725;28;20542;-79
2021/05/10 08:10:54;;;;;;;2.13;1.60;;;21.70;40.20;;;;;;5011000;28;20419;-80
2021/05/10 08:13:20;;;;;;;1.77;1.67;;;22.30;41.60;;;;;;5010892;28;20777;-79
2021/05/10 08:15:46;;;;;;;1.90;1.90;;;21.90;42.20;;;;;;5011139;28;20255;-79
2021/05/10 08:18:12;;;;;;;1.30;1.30;;;21.80;42.80;;;;;;5010440;28;20549;-79
2021/05/10 08:20:43;;;;;;;4.67;1.60;;;21.70;43.10;;;;;;5010115;28;20463;-78
2021/05/10 08:23:10;;;;;;;1.37;1.37;;;21.60;43.70;;;;;;5021157;28;20404;-91
2021/05/10 08:25:37;;;;;;;1.30;1.30;;;22.10;44.40;;;;;;5003870;28;20427;-88
2021/05/10 08:28:03;;;;;;;1.40;1.40;;;21.30;43.90;;;;;;5013533;28;20408;-85
2021/05/10 08:30:31;;;;;;;2.87;1.23;;;21.40;44.30;;;;;;5012593;28;20423;-87
2021/05/10 08:32:58;;;;;;;2.57;1.50;;;20.80;43.50;;;;;;4994967;28;20827;-87
2021/05/10 08:35:25;;;;;;;1.40;1.40;;;20.90;43.40;;;;;;4994672;28;20466;-85
2021/05/10 08:37:50;;;;;;;2.13;1.37;;;22.20;43.00;;;;;;5013056;28;20436;-88
2021/05/10 08:40:16;;;;;;;1.40;1.33;;;22.40;42.40;;;;;;5012488;28;20459;-88
2021/05/10 08:42:43;;;;;;;1.30;1.17;;;21.50;41.10;;;;;;5011995;28;20208;-87
2021/05/10 08:45:28;;;;;;;1.33;1.20;;;22.80;41.30;;;;;;5012197;28;20178;-88
2021/05/10 08:47:58;;;;;;;6.03;1.37;;;21.30;41.00;;;;;;5011678;28;20818;-87
2021/05/10 08:50:24;;;;;;;1.10;1.10;;;22.90;42.90;;;;;;5012273;28;20486;-86
2021/05/10 08:52:50;;;;;;;3.77;1.10;;;22.00;43.20;;;;;;5015002;28;20420;-85
2021/05/10 08:55:17;;;;;;;3.00;1.73;;;21.90;44.50;;;;;;5009175;28;20199;-91
2021/05/10 08:57:43;;;;;;;0.93;0.93;;;20.90;44.00;;;;;;5001149;28;20267;-86
2021/05/10 09:00:14;;;;;;;1.43;1.20;;;23.10;46.20;;;;;;5011346;28;20474;-85
2021/05/10 09:02:40;;;;;;;1.80;0.90;;;21.10;45.20;;;;;;5010860;28;20435;-87
2021/05/10 09:05:21;;;;;;;1.07;1.07;;;19.90;45.00;;;;;;5010208;28;20772;-86
2021/05/10 09:08:06;;;;;;;1.20;1.20;;;20.90;45.70;;;;;;5006282;28;20438;-84
2021/05/10 09:10:32;;;;;;;2.20;0.90;;;20.80;46.70;;;;;;4995148;28;20419;-86
2021/05/10 09:12:57;;;;;;;1.50;1.00;;;20.30;46.80;;;;;;4993863;28;20478;-84
2021/05/10 09:15:25;;;;;;;1.50;1.00;;;21.70;47.60;;;;;;5007061;28;20581;-85
2021/05/10 09:18:04;;;;;;;1.00;0.93;;;21.40;47.60;;;;;;4982975;28;20181;-85
2021/05/10 09:20:36;;;;;;;1.60;1.60;;;20.50;47.30;;;;;;4991524;28;20448;-86
2021/05/10 09:23:11;;;;;;;1.03;0.97;;;20.50;46.90;;;;;;5010475;28;20431;-86
2021/05/10 09:25:40;;;;;;;0.80;0.80;;;20.60;47.30;;;;;;5010894;28;20418;-86
2021/05/10 09:28:23;;;;;;;1.27;0.93;;;20.80;46.60;;;;;;5010848;28;20956;-86
2021/05/10 09:30:49;;;;;;;0.70;0.70;;;20.90;46.40;;;;;;5011509;28;20788;-85
2021/05/10 09:33:24;;;;;;;1.07;0.67;;;20.90;45.30;;;;;;5014359;28;20437;-85
2021/05/10 09:36:01;;;;;;;2.73;1.23;;;21.30;44.60;;;;;;5014738;28;20925;-85
2021/05/10 09:38:29;;;;;;;1.10;1.00;;;21.30;44.50;;;;;;5014743;28;20411;-84
2021/05/10 09:40:59;;;;;;;1.03;1.03;;;20.90;44.50;;;;;;5014211;28;20827;-85
2021/05/10 09:43:37;;;;;;;0.60;0.60;;;21.70;44.80;;;;;;4996629;28;20474;-86
2021/05/10 09:46:20;;;;;;;0.83;0.77;;;21.60;44.00;;;;;;5015027;28;20453;-85
2021/05/10 09:48:46;;;;;;;0.80;0.80;;;21.60;44.60;;;;;;5014121;28;20823;-85
2021/05/10 09:51:14;;;;;;;1.10;1.10;;;21.00;43.60;;;;;;5014568;28;20411;-86
2021/05/10 09:53:43;;;;;;;0.83;0.70;;;21.40;43.80;;;;;;4999812;28;20181;-90
2021/05/10 09:56:32;;;;;;;0.73;0.73;;;21.20;43.60;;;;;;5005154;28;20419;-90
2021/05/10 09:59:11;;;;;;;0.60;0.60;;;21.20;43.40;;;;;;5003460;28;20415;-90
2021/05/10 10:01:48;;;;;;;0.90;0.47;;;23.10;44.20;;;;;;5002445;28;20483;-91
2021/05/10 10:04:19;;;;;;;0.50;0.50;;;21.60;43.00;;;;;;5006346;28;20416;-90
2021/05/10 10:06:48;;;;;;;0.87;0.77;;;21.50;43.60;;;;;;5003053;28;20426;-90
2021/05/10 10:09:15;;;;;;;0.70;0.70;;;21.40;42.30;;;;;;5004533;28;20427;-89
2021/05/10 10:11:48;;;;;;;0.70;0.70;;;21.90;42.90;;;;;;5005121;28;20754;-91
2021/05/10 10:14:14;;;;;;;0.70;0.60;;;21.70;43.10;;;;;;5027493;28;20423;-90
2021/05/10 10:16:40;;;;;;;3.07;0.80;;;21.80;43.10;;;;;;5030839;28;20407;-87
2021/05/10 10:19:12;;;;;;;0.60;0.60;;;20.10;42.00;;;;;;5016524;28;20423;-88
2021/05/10 10:21:42;;;;;;;0.93;0.70;;;19.40;42.00;;;;;;5012835;28;20487;-88
2021/05/10 10:24:13;;;;;;;2.87;0.77;;;20.80;43.60;;;;;;4995727;28;20427;-87
2021/05/10 10:26:42;;;;;;;2.80;0.90;;;23.10;44.30;;;;;;5011957;28;20435;-90
2021/05/10 10:29:18;;;;;;;0.77;0.70;;;23.40;44.90;;;;;;5006847;28;20949;-90
2021/05/10 10:31:48;;;;;;;0.80;0.80;;;22.30;43.50;;;;;;5004644;28;20420;-86
2021/05/10 10:34:19;;;;;;;0.70;0.70;;;23.30;43.90;;;;;;5024000;28;20436;-91
2021/05/10 10:36:49;;;;;;;0.60;0.60;;;21.10;41.90;;;;;;5006700;28;20458;-84
2021/05/10 10:39:23;;;;;;;0.73;0.73;;;20.20;41.70;;;;;;5016322;28;20798;-87
2021/05/10 10:42:06;;;;;;;2.43;0.90;;;21.00;42.70;;;;;;5016264;28;20455;-88
2021/05/10 10:44:50;;;;;;;1.00;1.00;;;21.10;43.20;;;;;;4999249;28;20427;-86
2021/05/10 10:47:36;;;;;;;0.60;0.60;;;21.90;44.50;;;;;;5000113;28;20435;-89
2021/05/10 10:50:03;;;;;;;1.27;1.27;;;20.00;42.00;;;;;;5016286;28;20459;-88
2021/05/10 10:52:30;;;;;;;0.87;0.73;;;21.00;43.10;;;;;;5016867;28;20847;-89
2021/05/10 10:55:27;;;;;;;3.00;1.20;;;20.30;41.90;;;;;;5016862;28;20411;-90
2021/05/10 10:58:11;;;;;;;1.03;1.03;;;21.30;41.90;;;;;;4998846;28;20442;-89
2021/05/10 11:00:56;;;;;;;0.90;0.90;;;21.30;42.30;;;;;;5015320;28;20529;-90
2021/05/10 11:03:26;;;;;;;1.10;1.00;;;21.20;42.20;;;;;;5014980;28;20408;-87
2021/05/10 11:05:53;;;;;;;2.10;1.10;;;21.20;41.80;;;;;;5016763;28;20428;-89
2021/05/10 11:08:46;;;;;;;1.17;1.13;;;23.40;43.10;;;;;;4998950;28;20469;-88
2021/05/10 11:11:33;;;;;;;1.03;1.00;;;21.70;41.90;;;;;;5017663;28;20408;-89
2021/05/10 11:14:00;;;;;;;2.90;1.10;;;20.90;41.40;;;;;;4999404;28;20419;-87
2021/05/10 11:16:47;;;;;;;2.07;1.67;;;23.00;44.60;;;;;;5016178;28;20455;-89
2021/05/10 11:19:32;;;;;;;1.30;1.30;;;23.40;46.60;;;;;;5016459;28;20411;-88
2021/05/10 11:21:59;;;;;;;1.37;1.37;;;21.60;45.50;;;;;;5016510;28;20536;-89
2021/05/10 11:24:28;;;;;;;1.80;1.27;;;22.90;46.40;;;;;;4651695;28;10000164;-87
2021/05/10 11:26:56;;;;;;;1.03;1.03;;;21.20;45.70;;;;;;4996287;28;20276;-89
2021/05/10 11:29:25;;;;;;;2.13;1.33;;;20.00;44.60;;;;;;4996867;28;20438;-91
2021/05/10 11:31:58;;;;;;;1.37;1.37;;;22.20;46.20;;;;;;5024529;28;20522;-90
2021/05/10 11:34:33;;;;;;;1.40;1.30;;;21.70;44.90;;;;;;5009131;28;20431;-89
2021/05/10 11:37:00;;;;;;;3.70;1.50;;;19.80;42.60;;;;;;4998293;28;20427;-90
2021/05/10 11:39:32;;;;;;;1.47;1.47;;;25.10;45.10;;;;;;5006431;28;20443;-88
2021/05/10 11:42:03;;;;;;;1.87;1.40;;;25.00;43.20;;;;;;4992915;28;20486;-88
2021/05/10 11:44:33;;;;;;;1.67;1.57;;;23.30;41.60;;;;;;5002521;28;20494;-89
2021/05/10 11:47:00;;;;;;;1.63;1.60;;;24.50;42.50;;;;;;4997829;28;20424;-88
2021/05/10 11:49:30;;;;;;;1.50;1.40;;;24.70;43.00;;;;;;5015839;28;20550;-89
2021/05/10 11:51:58;;;;;;;1.63;1.63;;;23.60;41.00;;;;;;5016847;28;20420;-90
2021/05/10 11:54:25;;;;;;;1.30;1.30;;;25.00;41.10;;;;;;5013425;28;20412;-90
2021/05/10 11:56:54;;;;;;;1.37;1.30;;;24.90;40.00;;;;;;5012724;28;20466;-91
2021/05/10 12:02:11;;;;;;;1.30;1.30;;;23.60;40.30;;;;;;5014534;28;20916;-89
2021/05/10 12:04:42;;;;;;;1.27;1.27;;;25.00;42.10;;;;;;4997761;28;20419;-89
2021/05/10 12:07:11;;;;;;;1.60;1.40;;;23.30;41.00;;;;;;4996002;28;20482;-88
2021/05/10 12:09:50;;;;;;;1.20;1.20;;;22.10;41.00;;;;;;5011292;28;20446;-90
2021/05/10 12:12:18;;;;;;;1.37;1.27;;;22.50;42.40;;;;;;4993711;28;20481;-88
2021/05/10 12:14:47;;;;;;;1.60;1.50;;;23.40;44.70;;;;;;4984133;28;20499;-88
2021/05/10 12:17:15;;;;;;;1.13;1.13;;;22.40;42.00;;;;;;5010353;28;20435;-88
2021/05/10 12:19:52;;;;;;;1.30;1.30;;;23.10;42.00;;;;;;5004881;28;20430;-87
2021/05/10 12:22:24;;;;;;;1.50;1.20;;;23.20;41.30;;;;;;4993221;28;20504;-84
2021/05/10 12:24:59;;;;;;;1.83;1.73;;;23.00;41.30;;;;;;5010415;28;21345;-90
2021/05/10 12:27:29;;;;;;;2.03;1.97;;;22.80;42.80;;;;;;4998038;28;20423;-89
2021/05/10 12:29:55;;;;;;;1.27;1.27;;;24.80;42.10;;;;;;4989697;28;20444;-86
2021/05/10 12:32:21;;;;;;;1.17;1.17;;;24.10;41.30;;;;;;5012476;28;20489;-89
2021/05/10 12:34:47;;;;;;;4.37;1.20;;;25.10;42.20;;;;;;4993412;28;20620;-88
2021/05/10 12:37:12;;;;;;;2.40;2.30;;;25.50;43.50;;;;;;4993105;28;20212;-87
2021/05/10 12:39:38;;;;;;;3.83;3.50;;;23.50;46.60;;;;;;5012005;28;20498;-88
2021/05/10 12:42:20;;;;;;;4.33;3.93;;;20.60;46.70;;;;;;4995003;28;20226;-89
2021/05/10 12:44:56;;;;;;;2.77;2.67;;;20.00;48.60;;;;;;5000525;28;20176;-91
2021/05/10 12:47:46;;;;;;;2.90;2.70;;;19.90;49.50;;;;;;5003711;28;20427;-90
2021/05/10 12:50:34;;;;;;;2.60;2.37;;;19.40;50.50;;;;;;5006252;28;20457;-90
2021/05/10 12:53:03;;;;;;;2.97;2.30;;;19.90;52.00;;;;;;5021577;28;20446;-89
2021/05/10 12:55:30;;;;;;;2.00;1.90;;;18.60;52.00;;;;;;5003970;28;20470;-90
2021/05/10 12:57:55;;;;;;;2.67;2.47;;;19.50;53.90;;;;;;5003694;28;20900;-85
2021/05/10 13:00:35;;;;;;;2.20;2.20;;;21.00;54.60;;;;;;5014863;28;20737;-89
2021/05/10 13:03:01;;;;;;;2.10;2.00;;;19.30;52.30;;;;;;5016521;28;20227;-92